Time;durP1;ratioP1;P1;durP2;ratioP2;P2;SDS_P1;SDS_P2;PMS_P1;PMS_P2;Temp;Humidity;BMP_temperature;BMP_pressure;BME280_temperature;BME280_humidity;BME280_pressure;Samples;Min_cycle;Max_cycle;Signal;HPM_P1;HPM_P2
2021/01/26 00:01:08;;;;;;;9.77;8.30;;;3.20;99.90;;;;;;5070344;28;20193;-52
2021/01/26 00:03:34;;;;;;;8.43;7.50;;;3.10;99.90;;;;;;5068485;28;20311;-52
2021/01/26 00:05:59;;;;;;;9.67;8.27;;;3.00;99.90;;;;;;5068457;28;20205;-52
2021/01/26 00:08:25;;;;;;;10.17;7.87;;;3.00;99.90;;;;;;5066397;28;20545;-51
2021/01/26 00:10:51;;;;;;;7.80;7.00;;;2.90;99.90;;;;;;5067290;28;20273;-52
2021/01/26 00:13:19;;;;;;;10.30;8.00;;;3.00;99.90;;;;;;5066618;28;20217;-52
2021/01/26 00:15:45;;;;;;;9.35;7.50;;;3.00;99.90;;;;;;5063974;28;20181;-52
2021/01/26 00:18:11;;;;;;;9.43;7.30;;;2.80;99.90;;;;;;5070152;28;20238;-52
2021/01/26 00:20:36;;;;;;;7.90;7.10;;;2.90;99.90;;;;;;5068468;28;20189;-52
2021/01/26 00:23:02;;;;;;;11.33;9.03;;;3.10;99.90;;;;;;5069703;28;20209;-52
2021/01/26 00:25:34;;;;;;;8.25;6.25;;;2.90;99.90;;;;;;5083040;28;20220;-51
2021/01/26 00:28:01;;;;;;;7.93;6.35;;;2.70;99.90;;;;;;5090169;28;20211;-51
2021/01/26 00:30:29;;;;;;;7.00;6.10;;;2.90;99.90;;;;;;5067626;28;20194;-52
2021/01/26 00:32:58;;;;;;;7.93;6.70;;;2.60;99.90;;;;;;5068972;28;20221;-52
2021/01/26 00:35:24;;;;;;;7.05;6.30;;;2.80;99.90;;;;;;5059289;28;20662;-52
2021/01/26 00:37:51;;;;;;;7.15;6.35;;;2.60;99.90;;;;;;5069425;28;20177;-52
2021/01/26 00:40:18;;;;;;;8.73;7.00;;;3.00;99.90;;;;;;5060808;28;20185;-51
2021/01/26 00:42:44;;;;;;;8.68;6.93;;;2.90;99.90;;;;;;5070186;28;20254;-52
2021/01/26 00:45:12;;;;;;;9.00;7.38;;;2.90;99.90;;;;;;5057265;28;20257;-51
2021/01/26 00:47:37;;;;;;;9.20;7.47;;;2.90;99.90;;;;;;5069481;28;20177;-51
2021/01/26 00:50:08;;;;;;;9.97;7.20;;;2.60;99.90;;;;;;5059968;28;20195;-51
2021/01/26 00:52:33;;;;;;;12.00;9.43;;;2.60;99.90;;;;;;5059915;28;20836;-52
2021/01/26 00:54:59;;;;;;;9.00;7.20;;;2.40;99.90;;;;;;5068471;28;20189;-52
2021/01/26 00:57:25;;;;;;;10.43;7.80;;;2.50;99.90;;;;;;5069225;28;20445;-52
2021/01/26 00:59:51;;;;;;;9.27;8.27;;;2.40;99.90;;;;;;5065549;28;20246;-52
2021/01/26 01:02:18;;;;;;;8.50;6.45;;;2.20;99.90;;;;;;5069916;28;20199;-52
2021/01/26 01:04:45;;;;;;;7.65;6.82;;;2.10;99.90;;;;;;5060294;28;20266;-52
2021/01/26 01:07:12;;;;;;;8.80;6.88;;;2.40;99.90;;;;;;5068565;28;20535;-52
2021/01/26 01:09:38;;;;;;;7.45;6.13;;;2.30;99.90;;;;;;5060473;28;20193;-51
2021/01/26 01:12:04;;;;;;;8.20;5.80;;;1.90;99.90;;;;;;5066095;28;20241;-52
2021/01/26 01:14:30;;;;;;;6.70;5.90;;;2.50;99.90;;;;;;5068192;28;20216;-51
2021/01/26 01:16:56;;;;;;;5.85;5.25;;;2.30;99.90;;;;;;5049558;28;20196;-51
2021/01/26 01:19:22;;;;;;;5.70;4.83;;;2.50;99.90;;;;;;5067299;28;20185;-51
2021/01/26 01:21:48;;;;;;;7.60;5.72;;;2.30;99.90;;;;;;5067591;28;20439;-51
2021/01/26 01:24:15;;;;;;;5.90;5.10;;;2.30;99.90;;;;;;5058086;28;20701;-51
2021/01/26 01:26:41;;;;;;;6.60;5.40;;;2.60;99.90;;;;;;5060261;28;20181;-51
2021/01/26 01:29:06;;;;;;;7.27;5.87;;;2.60;99.90;;;;;;5066909;28;20180;-51
2021/01/26 01:31:32;;;;;;;7.23;5.80;;;2.60;99.90;;;;;;5068633;28;20450;-51
2021/01/26 01:33:58;;;;;;;6.07;5.47;;;2.50;99.90;;;;;;5068256;28;20680;-52
2021/01/26 01:36:23;;;;;;;7.17;5.70;;;2.60;99.90;;;;;;5068197;28;20443;-51
2021/01/26 01:38:49;;;;;;;5.73;5.23;;;2.00;99.90;;;;;;5063701;28;20219;-52
2021/01/26 01:41:15;;;;;;;6.50;5.90;;;2.60;99.90;;;;;;5079019;28;20212;-52
2021/01/26 01:43:40;;;;;;;6.00;5.40;;;2.80;99.90;;;;;;5065689;28;20233;-51
2021/01/26 01:46:13;;;;;;;8.00;6.10;;;2.60;99.90;;;;;;5062048;28;20205;-51
2021/01/26 01:48:39;;;;;;;6.05;5.45;;;2.50;99.90;;;;;;5068388;28;20385;-51
2021/01/26 01:51:16;;;;;;;7.13;5.78;;;2.30;99.90;;;;;;5064434;28;20243;-52
2021/01/26 01:53:47;;;;;;;7.82;6.38;;;2.30;99.90;;;;;;5086866;28;20199;-52
2021/01/26 01:56:41;;;;;;;6.57;5.70;;;2.60;99.90;;;;;;5063491;28;20204;-52
2021/01/26 01:59:30;;;;;;;7.40;5.63;;;2.30;99.90;;;;;;5061264;28;20177;-52
2021/01/26 02:01:56;;;;;;;6.25;4.82;;;2.30;99.90;;;;;;5067428;28;20190;-51
2021/01/26 02:04:24;;;;;;;7.37;5.43;;;2.20;99.90;;;;;;5062757;28;20577;-51
2021/01/26 02:06:55;;;;;;;8.60;6.45;;;2.30;99.90;;;;;;5064212;28;20181;-51
2021/01/26 02:09:26;;;;;;;6.50;5.72;;;2.30;99.90;;;;;;5063729;28;20557;-52
2021/01/26 02:11:52;;;;;;;5.93;5.22;;;2.30;99.90;;;;;;5068370;28;20181;-52
2021/01/26 02:14:17;;;;;;;7.78;5.18;;;2.40;99.90;;;;;;5067367;28;20315;-52
2021/01/26 02:16:55;;;;;;;6.60;5.73;;;2.30;99.90;;;;;;5067907;28;20267;-52
2021/01/26 02:19:59;;;;;;;6.60;5.75;;;2.30;99.90;;;;;;5059834;28;20713;-52
2021/01/26 02:23:22;;;;;;;6.97;5.55;;;2.20;99.90;;;;;;5080747;28;20217;-51
2021/01/26 02:26:21;;;;;;;6.80;5.78;;;2.50;99.90;;;;;;5038805;28;20365;-52
2021/01/26 02:28:55;;;;;;;11.32;5.80;;;2.20;99.90;;;;;;5035640;28;20173;-52
2021/01/26 02:31:46;;;;;;;6.47;5.70;;;2.30;99.90;;;;;;5060108;28;20303;-52
2021/01/26 02:34:43;;;;;;;7.85;6.25;;;2.40;99.90;;;;;;5054360;28;20534;-52
2021/01/26 02:37:35;;;;;;;6.35;5.13;;;2.30;99.90;;;;;;5063141;28;20185;-52
2021/01/26 02:40:11;;;;;;;6.82;5.93;;;2.20;99.90;;;;;;5053126;28;20174;-52
2021/01/26 02:43:09;;;;;;;8.25;6.15;;;2.20;99.90;;;;;;5068525;28;20676;-51
2021/01/26 02:46:03;;;;;;;7.07;5.13;;;2.50;99.90;;;;;;5067606;28;20735;-52
2021/01/26 02:48:36;;;;;;;6.18;4.85;;;2.40;99.90;;;;;;5060964;28;20185;-52
2021/01/26 02:51:15;;;;;;;6.55;5.13;;;2.60;99.90;;;;;;5068239;28;20267;-52
2021/01/26 02:54:08;;;;;;;7.32;5.40;;;2.50;99.90;;;;;;5063194;28;20200;-52
2021/01/26 02:56:45;;;;;;;7.53;5.40;;;2.30;99.90;;;;;;5074017;28;20583;-51
2021/01/26 02:59:29;;;;;;;6.85;5.97;;;2.30;99.90;;;;;;5071370;28;20181;-52
2021/01/26 03:02:43;;;;;;;7.50;5.93;;;2.60;99.90;;;;;;5070137;28;20184;-52
2021/01/26 03:05:22;;;;;;;6.75;5.53;;;2.40;99.90;;;;;;5014487;28;20210;-52
2021/01/26 03:08:06;;;;;;;8.10;6.20;;;2.20;99.90;;;;;;5028081;28;20349;-52
2021/01/26 03:10:39;;;;;;;7.53;5.95;;;2.60;99.90;;;;;;5051649;28;20200;-52
2021/01/26 03:13:09;;;;;;;5.47;4.95;;;2.40;99.90;;;;;;5074286;28;20242;-52
2021/01/26 03:15:43;;;;;;;7.88;6.28;;;2.30;99.90;;;;;;5063887;28;20717;-51
2021/01/26 03:18:24;;;;;;;10.10;5.95;;;2.50;99.90;;;;;;5071095;28;20193;-51
2021/01/26 03:20:52;;;;;;;9.07;5.93;;;2.50;99.90;;;;;;5067875;28;20188;-51
2021/01/26 03:23:26;;;;;;;7.95;6.55;;;2.20;99.90;;;;;;5063568;28;20264;-52
2021/01/26 03:25:53;;;;;;;8.05;5.90;;;2.20;99.90;;;;;;5068513;28;20201;-52
2021/01/26 03:28:23;;;;;;;7.40;5.65;;;2.30;99.90;;;;;;5074499;28;20181;-52
2021/01/26 03:30:52;;;;;;;7.30;4.88;;;2.40;99.90;;;;;;5065693;28;20177;-51
2021/01/26 03:33:21;;;;;;;8.18;6.35;;;2.20;99.90;;;;;;5081720;28;20227;-52
2021/01/26 03:35:47;;;;;;;7.47;5.90;;;2.30;99.90;;;;;;5065399;28;20181;-52
2021/01/26 03:38:20;;;;;;;9.07;5.00;;;2.10;99.90;;;;;;5063893;28;20565;-52
2021/01/26 03:40:50;;;;;;;8.63;6.40;;;2.20;99.90;;;;;;5066784;28;20968;-51
2021/01/26 03:43:16;;;;;;;8.98;6.50;;;2.00;99.90;;;;;;5065490;28;20208;-52
2021/01/26 03:45:43;;;;;;;9.10;6.20;;;2.00;99.90;;;;;;5068589;28;20271;-51
2021/01/26 03:48:53;;;;;;;9.13;7.05;;;2.30;99.90;;;;;;5070830;28;20450;-52
2021/01/26 03:51:53;;;;;;;7.80;5.70;;;2.20;99.90;;;;;;5050123;28;20556;-52
2021/01/26 03:54:37;;;;;;;7.80;6.40;;;2.10;99.90;;;;;;5056968;28;20250;-52
2021/01/26 03:57:27;;;;;;;6.25;5.53;;;2.20;99.90;;;;;;5066094;28;20618;-52
2021/01/26 04:00:11;;;;;;;8.30;6.07;;;2.10;99.90;;;;;;5064454;28;20186;-52
2021/01/26 04:02:51;;;;;;;8.90;5.97;;;2.00;99.90;;;;;;5072365;28;20321;-52
2021/01/26 04:05:31;;;;;;;7.57;6.03;;;2.00;99.90;;;;;;5079825;28;20199;-52
2021/01/26 04:08:04;;;;;;;10.73;6.13;;;2.10;99.90;;;;;;5082880;28;20546;-53
2021/01/26 04:10:35;;;;;;;7.45;5.45;;;2.20;99.90;;;;;;5067131;28;20184;-50
2021/01/26 04:13:06;;;;;;;9.73;6.22;;;2.00;99.90;;;;;;5058491;28;20214;-53
2021/01/26 04:15:41;;;;;;;6.55;5.60;;;2.10;99.90;;;;;;5050459;28;20187;-53
2021/01/26 04:18:09;;;;;;;9.13;5.78;;;2.20;99.90;;;;;;5064353;28;20189;-53
2021/01/26 04:20:36;;;;;;;8.38;7.03;;;2.10;99.90;;;;;;5061900;28;20197;-52
2021/01/26 04:23:03;;;;;;;9.50;6.45;;;2.10;99.90;;;;;;5067650;28;20208;-53
2021/01/26 04:25:38;;;;;;;7.50;5.93;;;2.00;99.90;;;;;;5064143;28;20201;-53
2021/01/26 04:28:12;;;;;;;8.10;5.78;;;2.10;99.90;;;;;;5067087;28;20263;-52
2021/01/26 04:30:38;;;;;;;8.20;6.13;;;2.30;99.90;;;;;;5069729;28;20181;-52
2021/01/26 04:33:07;;;;;;;7.05;5.57;;;2.30;99.90;;;;;;5086274;28;21122;-52
2021/01/26 04:35:33;;;;;;;7.30;5.20;;;2.00;99.90;;;;;;5055414;28;20750;-52
2021/01/26 04:37:59;;;;;;;7.70;5.80;;;2.30;99.90;;;;;;5067315;28;20200;-52
2021/01/26 04:40:27;;;;;;;6.88;4.82;;;2.10;99.90;;;;;;5066153;28;20432;-52
2021/01/26 04:43:08;;;;;;;7.30;5.22;;;2.30;99.90;;;;;;5069574;28;20346;-52
2021/01/26 04:45:51;;;;;;;5.95;5.10;;;2.40;99.90;;;;;;5066479;28;20212;-52
2021/01/26 04:48:29;;;;;;;6.55;4.47;;;2.40;99.90;;;;;;5060709;28;20272;-52
2021/01/26 04:51:29;;;;;;;6.38;5.20;;;2.30;99.90;;;;;;5061517;28;20188;-52
2021/01/26 04:54:02;;;;;;;8.45;5.70;;;2.20;99.90;;;;;;5059148;28;20680;-51
2021/01/26 04:56:36;;;;;;;5.38;4.82;;;2.60;99.90;;;;;;5068669;28;20185;-51
2021/01/26 04:59:32;;;;;;;6.72;4.18;;;2.60;99.90;;;;;;5069142;28;20189;-50
2021/01/26 05:02:16;;;;;;;5.05;4.55;;;2.50;99.90;;;;;;5068840;28;20640;-51
2021/01/26 05:04:46;;;;;;;5.20;4.50;;;2.70;99.90;;;;;;5064048;28;20216;-51
2021/01/26 05:07:25;;;;;;;6.00;4.45;;;2.70;99.90;;;;;;5055212;28;20177;-51
2021/01/26 05:10:09;;;;;;;9.80;4.68;;;2.80;99.90;;;;;;5069058;28;20188;-50
2021/01/26 05:12:53;;;;;;;4.35;3.95;;;2.50;99.90;;;;;;5060895;28;20194;-50
2021/01/26 05:15:23;;;;;;;5.07;3.85;;;2.60;99.90;;;;;;5075104;28;20664;-50
2021/01/26 05:18:18;;;;;;;4.30;3.90;;;2.80;99.90;;;;;;5063575;28;20221;-50
2021/01/26 05:20:47;;;;;;;5.22;4.32;;;2.90;99.90;;;;;;5058107;28;20201;-50
2021/01/26 05:23:24;;;;;;;4.45;3.97;;;3.10;99.90;;;;;;5064571;28;20216;-51
2021/01/26 05:25:50;;;;;;;4.38;3.97;;;2.70;99.90;;;;;;5052858;28;20237;-50
2021/01/26 05:28:18;;;;;;;5.40;4.03;;;2.80;99.90;;;;;;5056273;28;20330;-52
2021/01/26 05:30:53;;;;;;;7.05;5.05;;;3.00;99.90;;;;;;5066637;28;20264;-50
2021/01/26 05:33:20;;;;;;;4.78;3.85;;;3.00;99.90;;;;;;5060424;28;20577;-51
2021/01/26 05:35:53;;;;;;;5.78;4.10;;;3.00;99.90;;;;;;5054168;28;20185;-50
2021/01/26 05:38:19;;;;;;;4.70;4.20;;;3.10;99.90;;;;;;5080790;28;20185;-50
2021/01/26 05:40:55;;;;;;;4.10;3.70;;;3.00;99.90;;;;;;5064215;28;20284;-51
2021/01/26 05:43:26;;;;;;;5.68;4.13;;;3.10;99.90;;;;;;5063352;28;20208;-51
2021/01/26 05:45:55;;;;;;;4.22;3.70;;;2.90;99.90;;;;;;5057547;28;20209;-51
2021/01/26 05:48:23;;;;;;;5.13;4.25;;;3.20;99.90;;;;;;5065424;28;20721;-51
2021/01/26 05:50:51;;;;;;;7.20;4.32;;;3.10;99.90;;;;;;5066148;28;20196;-51
2021/01/26 05:53:26;;;;;;;6.18;4.65;;;2.90;99.90;;;;;;5057186;28;20663;-51
2021/01/26 05:56:01;;;;;;;5.85;4.13;;;2.80;99.90;;;;;;5057055;28;20677;-51
2021/01/26 05:58:28;;;;;;;7.38;4.05;;;3.20;99.90;;;;;;5065039;28;20184;-51
2021/01/26 06:00:59;;;;;;;3.50;3.20;;;3.00;99.90;;;;;;5057968;28;20189;-51
2021/01/26 06:03:26;;;;;;;6.68;3.85;;;3.10;99.90;;;;;;5059281;28;20207;-52
2021/01/26 06:06:14;;;;;;;3.50;3.20;;;2.70;99.90;;;;;;5056877;28;20228;-51
2021/01/26 06:08:50;;;;;;;6.53;4.13;;;2.80;99.90;;;;;;5063593;28;20186;-51
2021/01/26 06:11:22;;;;;;;4.63;3.35;;;3.10;99.90;;;;;;5060539;28;20185;-52
2021/01/26 06:13:48;;;;;;;4.47;3.60;;;3.00;99.90;;;;;;5074700;28;20213;-51
2021/01/26 06:16:19;;;;;;;5.33;3.30;;;3.00;99.90;;;;;;5056846;28;20228;-52
2021/01/26 06:18:57;;;;;;;4.57;3.15;;;3.10;99.90;;;;;;5079504;28;20275;-52
2021/01/26 06:21:23;;;;;;;3.17;2.88;;;2.90;99.90;;;;;;5068719;28;20741;-51
2021/01/26 06:23:48;;;;;;;3.85;3.20;;;3.10;99.90;;;;;;5070419;28;20212;-50
2021/01/26 06:26:14;;;;;;;6.40;4.10;;;3.10;99.90;;;;;;5080812;28;20211;-53
2021/01/26 06:28:52;;;;;;;6.57;3.73;;;2.90;99.90;;;;;;5058299;28;20181;-51
2021/01/26 06:31:53;;;;;;;2.60;2.30;;;3.10;99.90;;;;;;5063979;28;20242;-51
2021/01/26 06:34:56;;;;;;;5.13;3.95;;;3.30;99.90;;;;;;5060349;28;20217;-50
2021/01/26 06:37:45;;;;;;;3.30;2.67;;;3.20;99.90;;;;;;5061949;28;20173;-51
2021/01/26 06:40:23;;;;;;;4.13;2.72;;;3.00;99.90;;;;;;5066315;28;20180;-52
2021/01/26 06:43:09;;;;;;;5.07;3.05;;;3.20;99.90;;;;;;5068175;28;20233;-51
2021/01/26 06:46:09;;;;;;;3.40;2.88;;;3.30;99.90;;;;;;5068147;28;20567;-51
2021/01/26 06:49:02;;;;;;;4.32;3.72;;;3.20;99.90;;;;;;5077837;28;20178;-52
2021/01/26 06:51:45;;;;;;;4.72;3.15;;;3.40;99.90;;;;;;5055518;28;20191;-51
2021/01/26 06:54:42;;;;;;;4.78;3.40;;;3.40;99.90;;;;;;5057333;28;20583;-51
2021/01/26 06:57:52;;;;;;;2.63;2.40;;;3.20;99.90;;;;;;5066765;28;20578;-52
2021/01/26 07:00:28;;;;;;;3.67;2.95;;;3.30;99.90;;;;;;5063151;28;20565;-52
2021/01/26 07:03:12;;;;;;;5.28;3.88;;;3.10;99.90;;;;;;5054540;28;20735;-52
2021/01/26 07:06:04;;;;;;;4.22;2.92;;;3.10;99.90;;;;;;5054666;28;20236;-52
2021/01/26 07:08:38;;;;;;;4.55;2.92;;;3.10;99.90;;;;;;5049639;28;20568;-52
2021/01/26 07:11:34;;;;;;;4.53;3.78;;;3.20;99.90;;;;;;5060677;28;20572;-51
2021/01/26 07:14:30;;;;;;;5.93;3.97;;;3.60;99.90;;;;;;5062393;28;20223;-52
2021/01/26 07:17:03;;;;;;;4.13;3.03;;;3.60;99.90;;;;;;5067068;28;20208;-52
2021/01/26 07:19:32;;;;;;;4.88;4.43;;;3.50;99.90;;;;;;5081978;28;20256;-52
2021/01/26 07:22:18;;;;;;;4.95;3.63;;;3.60;99.90;;;;;;5063412;28;20188;-52
2021/01/26 07:25:15;;;;;;;5.05;3.67;;;3.50;99.90;;;;;;5061636;28;20205;-51
2021/01/26 07:28:18;;;;;;;4.25;3.08;;;3.50;99.90;;;;;;5056969;28;20180;-52
2021/01/26 07:30:56;;;;;;;5.32;3.85;;;2.90;99.90;;;;;;5080914;28;20178;-51
2021/01/26 07:33:34;;;;;;;4.28;3.25;;;3.60;99.90;;;;;;5081987;28;20197;-51
2021/01/26 07:36:14;;;;;;;7.50;3.47;;;3.60;99.90;;;;;;5065280;28;20252;-52
2021/01/26 07:38:46;;;;;;;3.55;3.25;;;3.30;99.90;;;;;;5059786;28;20600;-52
2021/01/26 07:41:31;;;;;;;3.03;2.30;;;3.20;99.90;;;;;;5068114;28;20185;-53
2021/01/26 07:44:06;;;;;;;4.10;3.10;;;3.30;99.90;;;;;;5071571;28;20296;-53
2021/01/26 07:46:42;;;;;;;5.70;3.88;;;3.10;99.90;;;;;;5068532;28;20227;-53
2021/01/26 07:49:20;;;;;;;4.28;2.92;;;3.30;99.90;;;;;;5069409;28;20686;-53
2021/01/26 07:51:50;;;;;;;7.47;3.88;;;3.20;99.90;;;;;;5070079;28;20429;-53
2021/01/26 07:54:29;;;;;;;7.72;3.70;;;3.30;99.90;;;;;;5086149;28;20292;-52
2021/01/26 07:56:59;;;;;;;6.45;3.83;;;3.20;99.90;;;;;;5078194;28;20218;-52
2021/01/26 07:59:29;;;;;;;10.82;3.85;;;3.50;99.90;;;;;;5066651;28;20207;-53
2021/01/26 08:01:59;;;;;;;6.43;3.45;;;3.50;99.90;;;;;;5061574;28;20231;-54
2021/01/26 08:04:27;;;;;;;7.72;3.45;;;3.30;99.90;;;;;;5064191;28;20198;-53
2021/01/26 08:06:59;;;;;;;4.88;3.42;;;3.40;99.90;;;;;;5060176;28;20709;-54
2021/01/26 08:09:33;;;;;;;4.35;2.58;;;3.70;99.90;;;;;;5065855;28;20224;-54
2021/01/26 08:12:14;;;;;;;3.90;2.60;;;3.70;99.90;;;;;;5062809;28;20189;-53
2021/01/26 08:14:51;;;;;;;2.47;2.28;;;3.50;99.90;;;;;;5069746;28;20220;-56
2021/01/26 08:17:35;;;;;;;3.20;1.95;;;3.40;99.90;;;;;;5081430;28;20611;-53
2021/01/26 08:20:20;;;;;;;3.88;2.35;;;3.80;99.90;;;;;;5068192;28;20185;-53
2021/01/26 08:22:55;;;;;;;3.30;2.60;;;3.90;99.90;;;;;;5068680;28;20193;-54
2021/01/26 08:25:32;;;;;;;3.78;2.90;;;3.60;99.90;;;;;;5056506;28;20207;-54
2021/01/26 08:28:10;;;;;;;5.07;2.90;;;3.80;99.90;;;;;;5089816;28;20184;-53
2021/01/26 08:30:36;;;;;;;6.18;2.95;;;3.50;99.90;;;;;;5071636;28;20192;-54
2021/01/26 08:33:23;;;;;;;4.50;3.50;;;3.90;99.90;;;;;;5063653;28;20201;-58
2021/01/26 08:35:54;;;;;;;4.60;3.30;;;3.70;99.90;;;;;;5073536;28;20233;-54
2021/01/26 08:38:58;;;;;;;5.90;3.25;;;3.80;99.90;;;;;;5067498;28;20185;-54
2021/01/26 08:41:45;;;;;;;4.68;3.35;;;3.60;99.90;;;;;;5073527;28;20196;-53
2021/01/26 08:44:20;;;;;;;8.23;3.30;;;3.50;99.90;;;;;;5066574;28;20201;-54
2021/01/26 08:46:48;;;;;;;4.18;3.45;;;3.50;99.90;;;;;;5068961;28;20598;-53
2021/01/26 08:49:35;;;;;;;9.77;3.80;;;3.60;99.90;;;;;;5058598;28;20265;-53
2021/01/26 08:52:22;;;;;;;5.75;4.20;;;3.80;99.90;;;;;;5067603;28;20177;-53
2021/01/26 08:54:51;;;;;;;6.28;4.55;;;3.30;99.90;;;;;;5071296;28;20204;-53
2021/01/26 08:57:28;;;;;;;5.40;4.15;;;3.60;99.90;;;;;;5065307;28;20177;-53
2021/01/26 08:59:59;;;;;;;5.57;4.10;;;3.80;99.90;;;;;;5061709;28;20327;-52
2021/01/26 09:02:42;;;;;;;5.10;4.25;;;3.60;99.90;;;;;;5058196;28;20185;-53
2021/01/26 09:05:09;;;;;;;5.53;4.15;;;3.60;99.90;;;;;;5062704;28;20212;-53
2021/01/26 09:07:49;;;;;;;4.03;3.50;;;3.40;99.90;;;;;;5069509;28;20261;-53
2021/01/26 09:10:50;;;;;;;4.30;3.80;;;3.60;99.90;;;;;;5080626;28;20275;-53
2021/01/26 09:13:30;;;;;;;5.43;3.88;;;3.40;99.90;;;;;;5069178;28;20657;-53
2021/01/26 09:16:18;;;;;;;4.10;3.70;;;3.60;99.90;;;;;;5062041;28;20198;-52
2021/01/26 09:18:50;;;;;;;4.60;4.20;;;3.50;99.90;;;;;;5065242;28;22091;-53
2021/01/26 09:21:16;;;;;;;4.80;3.75;;;3.30;99.90;;;;;;5065275;28;20302;-53
2021/01/26 09:23:44;;;;;;;5.93;4.27;;;3.70;99.90;;;;;;5066790;28;20744;-54
2021/01/26 09:26:15;;;;;;;4.55;3.88;;;3.50;99.90;;;;;;5079297;28;20699;-54
2021/01/26 09:28:43;;;;;;;4.60;4.00;;;3.60;99.90;;;;;;5063590;28;20186;-53
2021/01/26 09:31:11;;;;;;;5.68;3.63;;;3.40;99.90;;;;;;5072514;28;20212;-54
2021/01/26 09:33:37;;;;;;;4.88;3.63;;;3.10;99.90;;;;;;5065649;28;20213;-54
2021/01/26 09:36:03;;;;;;;5.53;3.60;;;3.50;99.90;;;;;;5067302;28;20577;-53
2021/01/26 09:38:36;;;;;;;4.33;2.73;;;3.70;99.90;;;;;;5068336;28;20187;-53
2021/01/26 09:41:25;;;;;;;5.35;3.10;;;3.80;99.90;;;;;;5060826;28;20193;-54
2021/01/26 09:44:08;;;;;;;4.07;2.85;;;4.00;99.90;;;;;;5063030;28;20229;-54
2021/01/26 09:46:51;;;;;;;6.47;3.85;;;4.00;99.90;;;;;;5062648;28;20836;-54
2021/01/26 09:49:23;;;;;;;7.38;3.50;;;4.20;99.90;;;;;;5079114;28;20667;-53
2021/01/26 09:51:54;;;;;;;4.20;3.38;;;4.60;99.90;;;;;;5060035;28;20266;-54
2021/01/26 09:54:26;;;;;;;4.53;2.90;;;4.60;99.90;;;;;;5082640;28;20702;-54
2021/01/26 09:56:53;;;;;;;3.00;2.70;;;4.70;99.90;;;;;;5050825;28;20191;-54
2021/01/26 09:59:20;;;;;;;4.13;3.13;;;4.70;99.90;;;;;;5068077;28;20178;-53
2021/01/26 10:01:47;;;;;;;3.33;2.60;;;4.70;99.90;;;;;;5061454;28;20192;-52
2021/01/26 10:04:14;;;;;;;6.57;2.72;;;4.50;99.50;;;;;;5074337;28;20236;-52
2021/01/26 10:06:40;;;;;;;4.20;2.60;;;4.30;99.90;;;;;;5060716;28;20213;-51
2021/01/26 10:09:25;;;;;;;4.50;3.00;;;4.50;99.90;;;;;;5072835;28;20182;-52
2021/01/26 10:11:52;;;;;;;3.50;3.20;;;4.40;99.90;;;;;;5066197;28;20190;-52
2021/01/26 10:14:18;;;;;;;4.22;3.15;;;4.30;99.90;;;;;;5062101;28;20590;-52
2021/01/26 10:16:52;;;;;;;6.17;4.07;;;4.30;99.90;;;;;;5065787;28;20186;-50
2021/01/26 10:19:29;;;;;;;4.40;2.70;;;4.50;99.90;;;;;;5067015;28;20184;-51
2021/01/26 10:22:09;;;;;;;4.13;2.55;;;4.60;99.20;;;;;;5059595;28;20647;-52
2021/01/26 10:24:35;;;;;;;3.03;2.80;;;4.60;99.60;;;;;;5069649;28;20202;-52
2021/01/26 10:27:18;;;;;;;4.30;3.30;;;4.90;99.30;;;;;;5087876;28;20263;-52
2021/01/26 10:29:44;;;;;;;3.55;3.10;;;4.80;98.90;;;;;;5067135;28;20436;-52
2021/01/26 10:32:39;;;;;;;4.07;2.33;;;5.20;98.90;;;;;;5070254;28;20855;-51
2021/01/26 10:35:20;;;;;;;5.78;2.47;;;4.90;97.30;;;;;;5065360;28;20206;-51
2021/01/26 10:37:46;;;;;;;3.05;2.40;;;5.30;97.60;;;;;;5082166;28;20185;-52
2021/01/26 10:40:22;;;;;;;3.83;2.37;;;5.40;96.70;;;;;;5056137;28;20226;-51
2021/01/26 10:42:59;;;;;;;6.20;3.10;;;5.70;96.60;;;;;;5061668;28;20767;-53
2021/01/26 10:45:39;;;;;;;5.93;2.65;;;5.50;96.80;;;;;;5058708;28;20640;-52
2021/01/26 10:48:21;;;;;;;4.75;2.75;;;5.40;96.80;;;;;;5065592;28;20453;-52
2021/01/26 10:50:47;;;;;;;2.95;2.50;;;4.90;96.40;;;;;;5067311;28;20183;-53
2021/01/26 10:53:35;;;;;;;3.13;2.67;;;5.40;96.80;;;;;;5059518;28;20206;-52
2021/01/26 10:56:01;;;;;;;4.97;2.97;;;5.20;96.40;;;;;;5060546;28;20379;-53
2021/01/26 10:58:27;;;;;;;6.72;3.08;;;5.30;99.10;;;;;;5056917;28;20234;-53
2021/01/26 11:00:53;;;;;;;4.32;2.45;;;5.40;98.10;;;;;;5062187;28;20220;-53
2021/01/26 11:03:19;;;;;;;3.30;2.05;;;5.30;96.60;;;;;;5060256;28;20689;-53
2021/01/26 11:05:44;;;;;;;4.30;3.27;;;5.50;96.30;;;;;;5068654;28;20208;-53
2021/01/26 11:08:10;;;;;;;3.33;2.30;;;5.20;96.30;;;;;;5079389;28;20184;-53
2021/01/26 11:10:39;;;;;;;2.60;2.40;;;5.10;96.60;;;;;;5062996;28;20213;-53
2021/01/26 11:13:05;;;;;;;3.00;2.70;;;5.20;96.60;;;;;;5053767;28;20219;-53
2021/01/26 11:15:31;;;;;;;5.63;2.47;;;5.30;96.90;;;;;;5067054;28;20267;-53
2021/01/26 11:17:57;;;;;;;5.83;2.60;;;5.10;96.60;;;;;;5071588;28;20230;-53
2021/01/26 11:20:23;;;;;;;2.47;2.27;;;4.60;96.50;;;;;;5071208;28;20281;-53
2021/01/26 11:22:49;;;;;;;7.07;2.58;;;5.00;96.70;;;;;;5081214;28;20432;-53
2021/01/26 11:25:16;;;;;;;3.33;2.60;;;5.10;97.00;;;;;;5070197;28;20290;-53
2021/01/26 11:27:42;;;;;;;2.90;2.60;;;4.90;97.10;;;;;;5070764;28;20265;-53
2021/01/26 11:30:11;;;;;;;3.97;3.60;;;5.00;96.90;;;;;;5083302;28;20665;-53
2021/01/26 11:32:37;;;;;;;2.10;1.95;;;4.90;96.90;;;;;;5070827;28;20178;-53
2021/01/26 11:35:04;;;;;;;4.60;2.50;;;5.10;96.50;;;;;;5073026;28;20684;-52
2021/01/26 11:37:30;;;;;;;5.10;1.95;;;5.00;96.60;;;;;;5059278;28;20654;-52
2021/01/26 11:39:55;;;;;;;2.90;2.10;;;5.10;96.40;;;;;;5061826;28;20187;-52
2021/01/26 11:42:21;;;;;;;3.00;2.37;;;4.40;95.40;;;;;;5076406;28;20190;-52
2021/01/26 11:44:47;;;;;;;1.73;1.63;;;4.80;95.40;;;;;;5068800;28;20208;-52
2021/01/26 11:47:12;;;;;;;3.30;2.43;;;5.00;95.50;;;;;;5066501;28;20232;-51
2021/01/26 11:49:38;;;;;;;4.13;2.67;;;5.20;95.90;;;;;;5069075;28;20179;-51
2021/01/26 11:52:04;;;;;;;3.80;2.47;;;5.10;95.80;;;;;;5072193;28;20187;-51
2021/01/26 11:54:29;;;;;;;3.10;2.27;;;5.30;95.60;;;;;;5067604;28;20207;-51
2021/01/26 11:56:55;;;;;;;5.10;2.87;;;5.40;95.60;;;;;;5078394;28;20431;-51
2021/01/26 11:59:21;;;;;;;3.83;2.30;;;5.60;95.40;;;;;;5063896;28;20183;-51
2021/01/26 12:01:46;;;;;;;2.67;2.40;;;5.70;95.00;;;;;;5058047;28;20190;-51
2021/01/26 12:04:12;;;;;;;3.30;2.10;;;5.70;94.30;;;;;;5070347;28;20562;-50
2021/01/26 12:06:38;;;;;;;5.40;2.60;;;5.80;93.40;;;;;;5069682;28;20212;-51
2021/01/26 12:09:04;;;;;;;4.50;3.20;;;5.80;94.00;;;;;;5068723;28;20228;-51
2021/01/26 12:11:31;;;;;;;3.05;1.90;;;6.00;93.20;;;;;;5069686;28;20195;-53
2021/01/26 12:13:56;;;;;;;4.63;2.30;;;6.00;92.40;;;;;;5084463;28;20243;-52
2021/01/26 12:16:22;;;;;;;3.90;3.20;;;6.10;91.90;;;;;;5072645;28;20291;-52
2021/01/26 12:18:48;;;;;;;2.40;2.10;;;6.00;92.60;;;;;;5082151;28;20805;-52
2021/01/26 12:21:14;;;;;;;4.57;2.85;;;6.20;92.80;;;;;;5073759;28;20566;-54
2021/01/26 12:23:42;;;;;;;3.50;2.47;;;6.10;92.00;;;;;;5071027;28;20307;-51
2021/01/26 12:26:08;;;;;;;4.13;2.47;;;6.40;92.40;;;;;;5078319;28;20325;-54
2021/01/26 12:28:34;;;;;;;4.23;3.03;;;6.20;91.60;;;;;;5083621;28;20656;-54
2021/01/26 12:31:00;;;;;;;2.10;1.80;;;6.00;92.10;;;;;;5062109;28;20728;-53
2021/01/26 12:33:25;;;;;;;2.60;2.10;;;6.10;91.80;;;;;;5061165;28;20229;-53
2021/01/26 12:35:51;;;;;;;2.67;2.27;;;6.00;92.30;;;;;;5075279;28;21137;-53
2021/01/26 12:38:17;;;;;;;2.00;1.83;;;5.60;91.80;;;;;;5073789;28;20675;-52
2021/01/26 12:40:43;;;;;;;2.92;2.30;;;5.50;92.10;;;;;;5082534;28;20252;-52
2021/01/26 12:43:10;;;;;;;4.30;2.28;;;5.90;92.50;;;;;;5089194;28;20201;-52
2021/01/26 12:45:36;;;;;;;2.50;2.30;;;5.70;92.20;;;;;;5070067;28;20571;-52
2021/01/26 12:48:02;;;;;;;2.90;2.70;;;5.90;92.60;;;;;;5058259;28;20195;-52
2021/01/26 12:50:33;;;;;;;2.60;1.90;;;5.60;92.80;;;;;;5068978;28;20953;-52
2021/01/26 12:52:59;;;;;;;7.30;2.50;;;5.70;92.60;;;;;;5067594;28;20284;-52
2021/01/26 12:55:25;;;;;;;4.10;2.60;;;5.80;92.50;;;;;;5082856;28;20216;-52
2021/01/26 12:57:51;;;;;;;2.47;2.03;;;5.80;91.90;;;;;;5082196;28;20436;-54
2021/01/26 13:00:20;;;;;;;3.28;2.40;;;5.90;91.90;;;;;;5076517;28;20184;-52
2021/01/26 13:02:47;;;;;;;4.30;2.58;;;5.00;91.70;;;;;;5074876;28;20191;-53
2021/01/26 13:05:13;;;;;;;5.82;2.50;;;5.60;92.60;;;;;;5062469;28;20573;-51
2021/01/26 13:07:40;;;;;;;2.58;2.10;;;5.60;92.90;;;;;;5060182;28;20825;-52
2021/01/26 13:10:07;;;;;;;3.83;2.45;;;5.50;92.60;;;;;;5077671;28;20216;-52
2021/01/26 13:12:33;;;;;;;2.95;2.00;;;5.70;92.90;;;;;;5066052;28;21214;-52
2021/01/26 13:14:58;;;;;;;4.87;1.97;;;5.60;92.70;;;;;;5082781;28;20278;-53
2021/01/26 13:17:24;;;;;;;7.43;3.20;;;5.60;93.00;;;;;;5077646;28;20466;-53
2021/01/26 13:19:50;;;;;;;3.27;2.03;;;5.40;93.60;;;;;;5078240;28;20227;-52
2021/01/26 13:22:15;;;;;;;2.20;2.00;;;5.90;93.30;;;;;;5083643;28;20738;-53
2021/01/26 13:24:43;;;;;;;3.70;2.20;;;5.70;93.40;;;;;;5084462;28;20699;-52
2021/01/26 13:27:08;;;;;;;2.25;2.13;;;6.00;92.50;;;;;;5084605;28;20279;-53
2021/01/26 13:29:35;;;;;;;2.30;2.10;;;6.10;92.10;;;;;;5075184;28;20264;-52
2021/01/26 13:32:02;;;;;;;5.47;2.45;;;6.10;92.50;;;;;;5069487;28;20207;-53